< < Back
Terminal Aerodrome Forecast


Current Version              Previous Versions:   1  2  3  4  5  6  7  8  9  

Terminal Aerodrome Forecast

586
FTAK31 PAJN 211700
TAFAHN
TAF
PAHN 211729Z 2118/2218 31007KT P6SM SCT010 BKN060
     FM212100 31011KT P6SM SCT025 BKN050
     FM220300 31008KT P6SM VCSH BKN050 OVC100
     FM220700 33005KT P6SM -RA BKN040 OVC080
      AMD LTD TO CLD VIS AND WIND=

Latest METAR

746
SAUS70 KWBC 220600
MTRAHN
METAR KAHN 220551Z AUTO 35004KT 10SM CLR 12/08 A3000 RMK AO2 SLP156
T01220078 10178 20122 58001


USA.gov is the U.S. government's official web portal to all federal, state and local government web resources and services.